Wolf Creek, OR (97497)

6:21 AM PST on February 07, 2016 (GMT -0800)
Last straw near Glendale HS | | Change Station
CLOSE
Current Station
Personal Weather Station
Location: Glendale, OR
Elevation: 1434 ft
Nearby Weather Stations

Elev 1434 ft 42.74 °N, 123.41 °W | Updated 43 seconds ago

Partly Cloudy
Partly Cloudy
45.4 °F
Feels Like 45 °F
N
0.0
Wind Variable Wind from SE
Gusts 0.0 mph

Today
High -- | Low -- °F
--% Chance of Precip.
Yesterday
High -- | Low -- °F
Precip. -- in
Pressure 30.48 in
Visibility 9.0 miles
Clouds Few 300 ft
Mostly Cloudy 1300 ft
Windchill 45 °F
Dew Point 45 °F
Humidity 99%
Rainfall 0.00 in
Snow Depth Not available.
7:21 AM 5:34 PM
Waning Crescent, 1% visible
SPECI KMFR 071406Z 00000KT 9SM FEW003 BKN013 04/03 A3048 RMK AO2 T00390028
Pressure 30.48 in
Visibility 9.0 miles
Clouds Few 300 ft
Mostly Cloudy 1300 ft
Windchill 45 °F
Dew Point 45 °F
Humidity 99%
Rainfall 0.00 in
Snow Depth Not available.
7:21 AM 5:34 PM
Waning Crescent, 1% visible
SPECI KMFR 071406Z 00000KT 9SM FEW003 BKN013 04/03 A3048 RMK AO2 T00390028

10-Day Weather Forecast

Almanac

Astronomy

Feb. 07, 2016 Rise Set
Actual Time
Civil Twilight
Nautical Twilight
Astronomical Twilight
Moon
Length of Visible Light
Length of Day
Tomorrow will be .
, % of the Moon is Illuminated

Today's Extremes

State Highs State Lows

Community

WunderPhotos

Upload Photos

1,891,204 photos uploaded!

WunderBlog® & News

Nearby

Air Quality

  Air Quality AQ Index Pollutant
Not available.

Snow Depth

Station Depth Elevation

Earthquake Activity

City Distance Mag. Time & Date
Minimum magnitude displayed is 2.5.

Coastal Water Temperatures

Place Temperature

Stations

Nearby Weather Stations

Station Location Temp. Windchill Dew Point Humidity Wind Precip. Elev Updated Type
                   

Watches & Warnings

There are currently no watches in effect.